sensor_id;sensor_type;location;lat;lon;timestamp;pressure;altitude;pressure_sealevel;temperature;humidity
62055;BME280;48653;51.742;-1.256;2023-03-20T00:03:44;101131.87;;;8.12;43.96
62055;BME280;48653;51.742;-1.256;2023-03-20T00:06:14;101128.82;;;8.70;43.87
62055;BME280;48653;51.742;-1.256;2023-03-20T00:08:34;101134.12;;;8.83;43.85
62055;BME280;48653;51.742;-1.256;2023-03-20T00:10:59;101135.67;;;8.44;44.39
62055;BME280;48653;51.742;-1.256;2023-03-20T00:13:25;101136.76;;;8.14;44.60
62055;BME280;48653;51.742;-1.256;2023-03-20T00:15:49;101137.52;;;8.40;44.19
62055;BME280;48653;51.742;-1.256;2023-03-20T00:18:17;101135.24;;;8.52;44.16
62055;BME280;48653;51.742;-1.256;2023-03-20T00:20:40;101128.99;;;8.69;44.11
62055;BME280;48653;51.742;-1.256;2023-03-20T00:23:05;101128.19;;;8.60;43.84
62055;BME280;48653;51.742;-1.256;2023-03-20T00:25:31;101122.67;;;8.91;43.50
62055;BME280;48653;51.742;-1.256;2023-03-20T00:27:57;101122.69;;;8.73;43.60
62055;BME280;48653;51.742;-1.256;2023-03-20T00:30:25;101120.19;;;8.62;43.62
62055;BME280;48653;51.742;-1.256;2023-03-20T00:32:49;101121.02;;;9.51;42.64
62055;BME280;48653;51.742;-1.256;2023-03-20T00:35:18;101119.99;;;9.36;42.76
62055;BME280;48653;51.742;-1.256;2023-03-20T00:37:39;101123.42;;;8.89;43.30
62055;BME280;48653;51.742;-1.256;2023-03-20T00:40:04;101127.13;;;9.14;42.95
62055;BME280;48653;51.742;-1.256;2023-03-20T00:42:29;101125.21;;;9.04;43.25
62055;BME280;48653;51.742;-1.256;2023-03-20T00:44:55;101118.97;;;9.12;43.10
62055;BME280;48653;51.742;-1.256;2023-03-20T00:47:22;101121.82;;;9.02;43.33
62055;BME280;48653;51.742;-1.256;2023-03-20T00:49:47;101120.20;;;8.94;43.17
62055;BME280;48653;51.742;-1.256;2023-03-20T00:52:10;101113.91;;;8.19;44.82
62055;BME280;48653;51.742;-1.256;2023-03-20T00:54:35;101113.53;;;8.25;44.61
62055;BME280;48653;51.742;-1.256;2023-03-20T00:57:04;101107.46;;;8.60;44.24
62055;BME280;48653;51.742;-1.256;2023-03-20T00:59:28;101109.58;;;8.88;43.76
62055;BME280;48653;51.742;-1.256;2023-03-20T01:01:51;101108.09;;;9.19;43.71
62055;BME280;48653;51.742;-1.256;2023-03-20T01:04:17;101109.99;;;8.79;44.36
62055;BME280;48653;51.742;-1.256;2023-03-20T01:06:41;101116.09;;;8.20;44.94
62055;BME280;48653;51.742;-1.256;2023-03-20T01:09:07;101111.57;;;8.67;44.53
62055;BME280;48653;51.742;-1.256;2023-03-20T01:11:31;101105.00;;;8.86;44.12
62055;BME280;48653;51.742;-1.256;2023-03-20T01:13:56;101100.65;;;8.62;44.94
62055;BME280;48653;51.742;-1.256;2023-03-20T01:16:24;101092.88;;;8.62;45.03
62055;BME280;48653;51.742;-1.256;2023-03-20T01:18:48;101087.31;;;7.77;46.34
62055;BME280;48653;51.742;-1.256;2023-03-20T01:21:13;101085.71;;;8.44;45.33
62055;BME280;48653;51.742;-1.256;2023-03-20T01:23:38;101084.94;;;8.62;45.06
62055;BME280;48653;51.742;-1.256;2023-03-20T01:26:03;101079.99;;;8.73;44.96
62055;BME280;48653;51.742;-1.256;2023-03-20T01:28:29;101073.44;;;8.62;45.56
62055;BME280;48653;51.742;-1.256;2023-03-20T01:30:54;101068.03;;;9.26;44.37
62055;BME280;48653;51.742;-1.256;2023-03-20T01:33:21;101073.66;;;8.57;45.32
62055;BME280;48653;51.742;-1.256;2023-03-20T01:35:46;101075.73;;;8.43;45.63
62055;BME280;48653;51.742;-1.256;2023-03-20T01:38:12;101077.33;;;7.64;47.13
62055;BME280;48653;51.742;-1.256;2023-03-20T01:40:42;101077.46;;;8.12;47.61
62055;BME280;48653;51.742;-1.256;2023-03-20T01:43:00;101072.63;;;8.02;47.73
62055;BME280;48653;51.742;-1.256;2023-03-20T01:45:30;101071.25;;;8.49;47.15
62055;BME280;48653;51.742;-1.256;2023-03-20T01:47:50;101066.49;;;7.94;47.70
62055;BME280;48653;51.742;-1.256;2023-03-20T01:50:20;101064.75;;;8.00;48.05
62055;BME280;48653;51.742;-1.256;2023-03-20T01:52:41;101066.82;;;8.03;47.60
62055;BME280;48653;51.742;-1.256;2023-03-20T01:55:06;101064.60;;;8.86;46.06
62055;BME280;48653;51.742;-1.256;2023-03-20T01:57:31;101062.83;;;8.32;47.24
62055;BME280;48653;51.742;-1.256;2023-03-20T02:00:00;101060.60;;;8.06;47.43
62055;BME280;48653;51.742;-1.256;2023-03-20T02:02:25;101056.87;;;8.65;46.43
62055;BME280;48653;51.742;-1.256;2023-03-20T02:04:51;101056.01;;;8.21;47.37
62055;BME280;48653;51.742;-1.256;2023-03-20T02:07:13;101059.00;;;7.85;47.47
62055;BME280;48653;51.742;-1.256;2023-03-20T02:09:37;101050.87;;;8.03;47.64
62055;BME280;48653;51.742;-1.256;2023-03-20T02:12:03;101050.35;;;8.08;47.40
62055;BME280;48653;51.742;-1.256;2023-03-20T02:14:28;101044.93;;;7.95;47.61
62055;BME280;48653;51.742;-1.256;2023-03-20T02:16:53;101040.43;;;8.50;47.32
62055;BME280;48653;51.742;-1.256;2023-03-20T02:19:25;101037.53;;;7.30;48.22
62055;BME280;48653;51.742;-1.256;2023-03-20T02:22:05;101030.49;;;8.09;47.42
62055;BME280;48653;51.742;-1.256;2023-03-20T02:24:31;101029.85;;;8.45;46.48
62055;BME280;48653;51.742;-1.256;2023-03-20T02:26:45;101025.49;;;8.96;46.10
62055;BME280;48653;51.742;-1.256;2023-03-20T02:34:02;101023.22;;;8.61;46.90
62055;BME280;48653;51.742;-1.256;2023-03-20T02:38:50;101014.48;;;8.31;46.47
62055;BME280;48653;51.742;-1.256;2023-03-20T02:41:13;101016.32;;;8.73;46.17
62055;BME280;48653;51.742;-1.256;2023-03-20T02:43:40;101016.54;;;8.56;46.47
62055;BME280;48653;51.742;-1.256;2023-03-20T02:46:03;101011.05;;;9.14;45.42
62055;BME280;48653;51.742;-1.256;2023-03-20T02:48:30;101020.29;;;8.94;45.96
62055;BME280;48653;51.742;-1.256;2023-03-20T02:50:52;101015.82;;;9.10;45.68
62055;BME280;48653;51.742;-1.256;2023-03-20T02:53:19;101014.41;;;8.29;47.03
62055;BME280;48653;51.742;-1.256;2023-03-20T02:55:40;101012.84;;;8.84;46.27
62055;BME280;48653;51.742;-1.256;2023-03-20T02:58:09;101010.44;;;8.07;47.64
62055;BME280;48653;51.742;-1.256;2023-03-20T03:00:32;100997.98;;;8.63;46.91
62055;BME280;48653;51.742;-1.256;2023-03-20T03:03:03;100992.20;;;9.06;46.22
62055;BME280;48653;51.742;-1.256;2023-03-20T03:05:22;100992.38;;;8.70;46.81
62055;BME280;48653;51.742;-1.256;2023-03-20T03:07:46;100987.79;;;8.94;46.61
62055;BME280;48653;51.742;-1.256;2023-03-20T03:10:12;100987.41;;;9.04;46.54
62055;BME280;48653;51.742;-1.256;2023-03-20T03:12:37;100986.36;;;9.11;46.55
62055;BME280;48653;51.742;-1.256;2023-03-20T03:15:03;100989.76;;;8.92;46.92
62055;BME280;48653;51.742;-1.256;2023-03-20T03:17:28;100987.16;;;9.16;46.14
62055;BME280;48653;51.742;-1.256;2023-03-20T03:19:54;100981.36;;;9.23;46.16
62055;BME280;48653;51.742;-1.256;2023-03-20T03:22:17;100974.73;;;9.12;47.00
62055;BME280;48653;51.742;-1.256;2023-03-20T03:24:43;100969.18;;;9.68;46.16
62055;BME280;48653;51.742;-1.256;2023-03-20T03:27:12;100962.68;;;9.09;47.35
62055;BME280;48653;51.742;-1.256;2023-03-20T03:29:35;100958.49;;;8.95;47.76
62055;BME280;48653;51.742;-1.256;2023-03-20T03:31:57;100961.30;;;9.13;47.56
62055;BME280;48653;51.742;-1.256;2023-03-20T03:34:22;100958.32;;;8.90;48.06
62055;BME280;48653;51.742;-1.256;2023-03-20T03:36:51;100953.92;;;9.19;47.67
62055;BME280;48653;51.742;-1.256;2023-03-20T03:39:20;100951.26;;;8.71;49.63
62055;BME280;48653;51.742;-1.256;2023-03-20T03:41:40;100945.93;;;8.34;50.19
62055;BME280;48653;51.742;-1.256;2023-03-20T03:44:07;100952.85;;;7.49;51.47
62055;BME280;48653;51.742;-1.256;2023-03-20T03:46:35;100949.35;;;8.69;50.13
62055;BME280;48653;51.742;-1.256;2023-03-20T03:48:55;100952.44;;;8.73;49.19
62055;BME280;48653;51.742;-1.256;2023-03-20T03:51:22;100953.16;;;7.80;51.96
62055;BME280;48653;51.742;-1.256;2023-03-20T03:53:46;100954.22;;;8.24;51.35
62055;BME280;48653;51.742;-1.256;2023-03-20T03:56:11;100951.43;;;7.86;51.61
62055;BME280;48653;51.742;-1.256;2023-03-20T03:58:36;100961.26;;;8.10;51.72
62055;BME280;48653;51.742;-1.256;2023-03-20T04:01:00;100958.49;;;7.16;53.13
62055;BME280;48653;51.742;-1.256;2023-03-20T04:03:28;100960.70;;;7.88;52.48
62055;BME280;48653;51.742;-1.256;2023-03-20T04:05:51;100950.86;;;8.19;51.44
62055;BME280;48653;51.742;-1.256;2023-03-20T04:08:15;100948.41;;;7.82;53.10
62055;BME280;48653;51.742;-1.256;2023-03-20T04:10:40;100945.88;;;7.88;52.97
62055;BME280;48653;51.742;-1.256;2023-03-20T04:13:05;100938.56;;;7.68;54.43
62055;BME280;48653;51.742;-1.256;2023-03-20T04:15:30;100938.78;;;7.19;55.35
62055;BME280;48653;51.742;-1.256;2023-03-20T04:17:55;100934.77;;;7.53;54.58
62055;BME280;48653;51.742;-1.256;2023-03-20T04:20:21;100939.49;;;7.62;54.68
62055;BME280;48653;51.742;-1.256;2023-03-20T04:22:46;100939.55;;;7.61;55.12
62055;BME280;48653;51.742;-1.256;2023-03-20T04:25:16;100936.83;;;7.49;55.50
62055;BME280;48653;51.742;-1.256;2023-03-20T04:27:36;100943.91;;;7.56;55.82
62055;BME280;48653;51.742;-1.256;2023-03-20T04:30:02;100939.32;;;8.56;53.43
62055;BME280;48653;51.742;-1.256;2023-03-20T04:32:27;100935.16;;;8.52;53.44
62055;BME280;48653;51.742;-1.256;2023-03-20T04:34:52;100936.18;;;8.45;53.93
62055;BME280;48653;51.742;-1.256;2023-03-20T04:37:18;100936.76;;;8.33;54.25
62055;BME280;48653;51.742;-1.256;2023-03-20T04:39:43;100934.94;;;8.40;54.89
62055;BME280;48653;51.742;-1.256;2023-03-20T04:42:09;100936.96;;;8.66;54.07
62055;BME280;48653;51.742;-1.256;2023-03-20T04:44:34;100937.44;;;8.50;55.03
62055;BME280;48653;51.742;-1.256;2023-03-20T04:47:00;100933.99;;;8.55;55.32
62055;BME280;48653;51.742;-1.256;2023-03-20T04:49:25;100934.36;;;8.88;53.55
62055;BME280;48653;51.742;-1.256;2023-03-20T04:51:50;100934.48;;;8.81;53.22
62055;BME280;48653;51.742;-1.256;2023-03-20T04:54:15;100928.45;;;9.20;53.23
62055;BME280;48653;51.742;-1.256;2023-03-20T04:56:40;100926.78;;;9.38;51.79
62055;BME280;48653;51.742;-1.256;2023-03-20T04:59:05;100921.02;;;9.17;52.75
62055;BME280;48653;51.742;-1.256;2023-03-20T05:01:31;100927.24;;;8.40;54.55
62055;BME280;48653;51.742;-1.256;2023-03-20T05:03:56;100927.38;;;9.06;52.69
62055;BME280;48653;51.742;-1.256;2023-03-20T05:06:21;100930.38;;;8.83;53.73
62055;BME280;48653;51.742;-1.256;2023-03-20T05:08:47;100927.82;;;9.16;52.19
62055;BME280;48653;51.742;-1.256;2023-03-20T05:11:12;100922.89;;;9.76;51.12
62055;BME280;48653;51.742;-1.256;2023-03-20T05:13:37;100923.41;;;9.18;53.02
62055;BME280;48653;51.742;-1.256;2023-03-20T05:16:03;100926.34;;;8.11;55.72
62055;BME280;48653;51.742;-1.256;2023-03-20T05:18:28;100928.93;;;9.05;54.44
62055;BME280;48653;51.742;-1.256;2023-03-20T05:20:53;100929.40;;;8.50;54.71
62055;BME280;48653;51.742;-1.256;2023-03-20T05:23:19;100921.84;;;8.52;56.03
62055;BME280;48653;51.742;-1.256;2023-03-20T05:25:44;100924.21;;;7.37;58.25
62055;BME280;48653;51.742;-1.256;2023-03-20T05:28:10;100925.58;;;8.64;55.45
62055;BME280;48653;51.742;-1.256;2023-03-20T05:30:35;100928.76;;;8.15;56.29
62055;BME280;48653;51.742;-1.256;2023-03-20T05:33:01;100929.00;;;8.40;57.19
62055;BME280;48653;51.742;-1.256;2023-03-20T05:35:26;100931.75;;;8.31;57.60
62055;BME280;48653;51.742;-1.256;2023-03-20T05:37:51;100935.69;;;8.81;56.68
62055;BME280;48653;51.742;-1.256;2023-03-20T05:40:16;100940.61;;;8.59;56.21
62055;BME280;48653;51.742;-1.256;2023-03-20T05:42:42;100940.55;;;8.40;57.63
62055;BME280;48653;51.742;-1.256;2023-03-20T05:45:08;100944.18;;;8.53;57.12
62055;BME280;48653;51.742;-1.256;2023-03-20T05:47:32;100941.65;;;8.56;57.65
62055;BME280;48653;51.742;-1.256;2023-03-20T05:49:58;100937.06;;;9.28;56.08
62055;BME280;48653;51.742;-1.256;2023-03-20T05:52:23;100940.52;;;8.53;57.38
62055;BME280;48653;51.742;-1.256;2023-03-20T05:54:48;100936.51;;;8.94;56.71
62055;BME280;48653;51.742;-1.256;2023-03-20T05:57:14;100935.30;;;9.45;55.47
62055;BME280;48653;51.742;-1.256;2023-03-20T05:59:39;100937.69;;;9.51;55.58
62055;BME280;48653;51.742;-1.256;2023-03-20T06:02:04;100939.88;;;8.88;57.39
62055;BME280;48653;51.742;-1.256;2023-03-20T06:04:29;100934.03;;;9.07;57.18
62055;BME280;48653;51.742;-1.256;2023-03-20T06:06:55;100939.83;;;9.38;55.71
62055;BME280;48653;51.742;-1.256;2023-03-20T06:09:20;100936.84;;;8.83;57.14
62055;BME280;48653;51.742;-1.256;2023-03-20T06:11:45;100933.34;;;8.82;57.39
62055;BME280;48653;51.742;-1.256;2023-03-20T06:14:11;100940.24;;;8.94;57.95
62055;BME280;48653;51.742;-1.256;2023-03-20T06:16:36;100929.45;;;9.05;57.75
62055;BME280;48653;51.742;-1.256;2023-03-20T06:19:02;100929.99;;;8.42;58.80
62055;BME280;48653;51.742;-1.256;2023-03-20T06:21:27;100931.58;;;8.70;58.88
62055;BME280;48653;51.742;-1.256;2023-03-20T06:23:52;100927.25;;;9.34;57.61
62055;BME280;48653;51.742;-1.256;2023-03-20T06:26:18;100924.04;;;8.40;60.29
62055;BME280;48653;51.742;-1.256;2023-03-20T06:28:43;100918.88;;;8.65;61.09
62055;BME280;48653;51.742;-1.256;2023-03-20T06:31:08;100928.65;;;7.84;63.90
62055;BME280;48653;51.742;-1.256;2023-03-20T06:33:34;100921.63;;;7.87;63.83
62055;BME280;48653;51.742;-1.256;2023-03-20T06:35:59;100925.09;;;8.27;62.86
62055;BME280;48653;51.742;-1.256;2023-03-20T06:38:24;100930.52;;;8.52;62.77
62055;BME280;48653;51.742;-1.256;2023-03-20T06:40:50;100926.52;;;9.01;61.61
62055;BME280;48653;51.742;-1.256;2023-03-20T06:43:16;100928.59;;;8.71;61.29
62055;BME280;48653;51.742;-1.256;2023-03-20T06:45:41;100923.67;;;7.49;64.84
62055;BME280;48653;51.742;-1.256;2023-03-20T06:48:07;100922.11;;;8.65;63.38
62055;BME280;48653;51.742;-1.256;2023-03-20T06:50:31;100927.38;;;8.74;62.44
62055;BME280;48653;51.742;-1.256;2023-03-20T06:52:57;100931.09;;;8.61;62.09
62055;BME280;48653;51.742;-1.256;2023-03-20T06:55:23;100931.36;;;8.05;63.44
62055;BME280;48653;51.742;-1.256;2023-03-20T06:57:48;100931.93;;;9.01;62.79
62055;BME280;48653;51.742;-1.256;2023-03-20T07:00:14;100936.50;;;8.79;62.12
62055;BME280;48653;51.742;-1.256;2023-03-20T07:02:38;100938.42;;;8.57;62.87
62055;BME280;48653;51.742;-1.256;2023-03-20T07:05:04;100942.80;;;8.70;63.14
62055;BME280;48653;51.742;-1.256;2023-03-20T07:07:29;100940.81;;;8.59;62.83
62055;BME280;48653;51.742;-1.256;2023-03-20T07:09:54;100942.79;;;9.03;62.51
62055;BME280;48653;51.742;-1.256;2023-03-20T07:12:19;100941.13;;;9.03;62.07
62055;BME280;48653;51.742;-1.256;2023-03-20T07:14:45;100944.49;;;8.98;61.98
62055;BME280;48653;51.742;-1.256;2023-03-20T07:17:10;100947.91;;;9.05;62.11
62055;BME280;48653;51.742;-1.256;2023-03-20T07:19:35;100947.47;;;8.88;61.91
62055;BME280;48653;51.742;-1.256;2023-03-20T07:22:02;100950.10;;;9.89;60.39
62055;BME280;48653;51.742;-1.256;2023-03-20T07:24:26;100951.26;;;9.04;62.75
62055;BME280;48653;51.742;-1.256;2023-03-20T07:26:52;100951.97;;;8.59;63.15
62055;BME280;48653;51.742;-1.256;2023-03-20T07:29:17;100948.93;;;8.79;64.15
62055;BME280;48653;51.742;-1.256;2023-03-20T07:31:42;100950.06;;;9.10;62.64
62055;BME280;48653;51.742;-1.256;2023-03-20T07:34:08;100945.36;;;9.48;61.64
62055;BME280;48653;51.742;-1.256;2023-03-20T07:36:34;100945.49;;;9.42;61.84
62055;BME280;48653;51.742;-1.256;2023-03-20T07:38:59;100942.42;;;9.48;62.25
62055;BME280;48653;51.742;-1.256;2023-03-20T07:41:24;100946.97;;;10.06;59.84
62055;BME280;48653;51.742;-1.256;2023-03-20T07:43:50;100949.85;;;9.94;60.09
62055;BME280;48653;51.742;-1.256;2023-03-20T07:46:16;100954.47;;;9.47;61.58
62055;BME280;48653;51.742;-1.256;2023-03-20T07:48:41;100951.83;;;9.96;60.60
62055;BME280;48653;51.742;-1.256;2023-03-20T07:51:07;100952.58;;;9.28;62.29
62055;BME280;48653;51.742;-1.256;2023-03-20T07:53:32;100951.52;;;9.61;61.37
62055;BME280;48653;51.742;-1.256;2023-03-20T07:55:57;100954.01;;;10.03;60.20
62055;BME280;48653;51.742;-1.256;2023-03-20T07:58:23;100957.27;;;9.80;61.21
62055;BME280;48653;51.742;-1.256;2023-03-20T08:00:48;100960.72;;;9.82;61.33
62055;BME280;48653;51.742;-1.256;2023-03-20T08:03:13;100962.37;;;10.96;58.63
62055;BME280;48653;51.742;-1.256;2023-03-20T08:05:38;100959.58;;;10.56;59.00
62055;BME280;48653;51.742;-1.256;2023-03-20T08:08:04;100960.53;;;11.09;57.97
62055;BME280;48653;51.742;-1.256;2023-03-20T08:10:28;100965.05;;;11.17;57.31
62055;BME280;48653;51.742;-1.256;2023-03-20T08:12:53;100963.99;;;10.94;58.04
62055;BME280;48653;51.742;-1.256;2023-03-20T08:15:18;100967.87;;;11.11;57.67
62055;BME280;48653;51.742;-1.256;2023-03-20T08:17:44;100966.60;;;12.07;56.32
62055;BME280;48653;51.742;-1.256;2023-03-20T08:20:11;100961.67;;;11.57;56.34
62055;BME280;48653;51.742;-1.256;2023-03-20T08:22:34;100967.05;;;11.09;57.86
62055;BME280;48653;51.742;-1.256;2023-03-20T08:25:00;100962.46;;;11.15;58.01
62055;BME280;48653;51.742;-1.256;2023-03-20T08:27:25;100963.68;;;11.58;57.68
62055;BME280;48653;51.742;-1.256;2023-03-20T08:29:50;100959.76;;;10.93;57.91
62055;BME280;48653;51.742;-1.256;2023-03-20T08:32:15;100956.03;;;11.22;58.01
62055;BME280;48653;51.742;-1.256;2023-03-20T08:34:40;100956.65;;;10.72;58.43
62055;BME280;48653;51.742;-1.256;2023-03-20T08:37:06;100960.52;;;11.36;57.70
62055;BME280;48653;51.742;-1.256;2023-03-20T08:39:31;100960.43;;;11.15;58.23
62055;BME280;48653;51.742;-1.256;2023-03-20T08:41:56;100958.83;;;11.29;59.09
62055;BME280;48653;51.742;-1.256;2023-03-20T08:44:21;100961.53;;;11.16;58.22
62055;BME280;48653;51.742;-1.256;2023-03-20T08:46:46;100964.01;;;11.24;58.05
62055;BME280;48653;51.742;-1.256;2023-03-20T08:49:12;100957.56;;;11.60;56.74
62055;BME280;48653;51.742;-1.256;2023-03-20T08:51:38;100957.55;;;11.75;56.31
62055;BME280;48653;51.742;-1.256;2023-03-20T08:54:03;100961.65;;;12.09;56.00
62055;BME280;48653;51.742;-1.256;2023-03-20T08:56:28;100962.20;;;11.49;57.52
62055;BME280;48653;51.742;-1.256;2023-03-20T08:58:54;100959.89;;;10.37;60.17
62055;BME280;48653;51.742;-1.256;2023-03-20T09:01:19;100966.09;;;11.48;58.20
62055;BME280;48653;51.742;-1.256;2023-03-20T09:03:44;100962.60;;;10.80;59.14
62055;BME280;48653;51.742;-1.256;2023-03-20T09:06:10;100963.02;;;11.52;58.04
62055;BME280;48653;51.742;-1.256;2023-03-20T09:08:34;100965.04;;;11.26;58.58
62055;BME280;48653;51.742;-1.256;2023-03-20T09:11:00;100965.71;;;11.72;56.64
62055;BME280;48653;51.742;-1.256;2023-03-20T09:13:25;100967.26;;;11.04;58.67
62055;BME280;48653;51.742;-1.256;2023-03-20T09:15:50;100958.02;;;12.02;57.46
62055;BME280;48653;51.742;-1.256;2023-03-20T09:18:15;100957.59;;;11.85;58.13
62055;BME280;48653;51.742;-1.256;2023-03-20T09:20:40;100955.73;;;11.54;57.97
62055;BME280;48653;51.742;-1.256;2023-03-20T09:23:05;100960.81;;;11.61;58.53
62055;BME280;48653;51.742;-1.256;2023-03-20T09:25:30;100960.15;;;11.07;60.32
62055;BME280;48653;51.742;-1.256;2023-03-20T09:27:55;100964.83;;;11.65;58.78
62055;BME280;48653;51.742;-1.256;2023-03-20T09:30:21;100961.23;;;11.70;57.92
62055;BME280;48653;51.742;-1.256;2023-03-20T09:32:46;100964.60;;;11.27;59.43
62055;BME280;48653;51.742;-1.256;2023-03-20T09:35:11;100965.01;;;11.71;58.03
62055;BME280;48653;51.742;-1.256;2023-03-20T09:37:36;100965.33;;;11.91;57.20
62055;BME280;48653;51.742;-1.256;2023-03-20T09:40:02;100969.25;;;11.89;57.25
62055;BME280;48653;51.742;-1.256;2023-03-20T09:42:38;100974.29;;;11.91;57.31
62055;BME280;48653;51.742;-1.256;2023-03-20T09:44:59;100974.67;;;11.43;58.90
62055;BME280;48653;51.742;-1.256;2023-03-20T09:47:22;100980.33;;;11.89;57.39
62055;BME280;48653;51.742;-1.256;2023-03-20T09:49:49;100985.88;;;12.35;56.90
62055;BME280;48653;51.742;-1.256;2023-03-20T09:52:18;100987.33;;;12.00;57.12
62055;BME280;48653;51.742;-1.256;2023-03-20T09:54:35;100975.79;;;11.95;58.08
62055;BME280;48653;51.742;-1.256;2023-03-20T09:56:59;100970.85;;;11.42;58.56
62055;BME280;48653;51.742;-1.256;2023-03-20T09:59:25;100971.25;;;12.32;56.66
62055;BME280;48653;51.742;-1.256;2023-03-20T10:01:51;100970.85;;;11.88;56.72
62055;BME280;48653;51.742;-1.256;2023-03-20T10:04:14;100973.20;;;12.42;56.27
62055;BME280;48653;51.742;-1.256;2023-03-20T10:06:39;100970.20;;;12.31;56.99
62055;BME280;48653;51.742;-1.256;2023-03-20T10:09:13;100972.09;;;12.32;56.75
62055;BME280;48653;51.742;-1.256;2023-03-20T10:11:47;100971.50;;;12.15;56.77
62055;BME280;48653;51.742;-1.256;2023-03-20T10:14:07;100970.17;;;12.11;57.17
62055;BME280;48653;51.742;-1.256;2023-03-20T10:16:30;100976.85;;;12.06;58.14
62055;BME280;48653;51.742;-1.256;2023-03-20T10:18:50;100975.41;;;12.17;57.10
62055;BME280;48653;51.742;-1.256;2023-03-20T10:21:15;100979.01;;;11.55;58.66
62055;BME280;48653;51.742;-1.256;2023-03-20T10:23:41;100976.98;;;11.48;58.98
62055;BME280;48653;51.742;-1.256;2023-03-20T10:26:05;100974.67;;;12.21;57.05
62055;BME280;48653;51.742;-1.256;2023-03-20T10:28:33;100979.00;;;11.91;57.82
62055;BME280;48653;51.742;-1.256;2023-03-20T10:31:00;100984.81;;;12.15;57.27
62055;BME280;48653;51.742;-1.256;2023-03-20T10:33:26;100979.74;;;12.41;56.43
62055;BME280;48653;51.742;-1.256;2023-03-20T10:35:46;100978.62;;;12.74;55.73
62055;BME280;48653;51.742;-1.256;2023-03-20T10:38:18;100980.46;;;11.78;58.27
62055;BME280;48653;51.742;-1.256;2023-03-20T10:40:33;100976.68;;;12.15;57.64
62055;BME280;48653;51.742;-1.256;2023-03-20T10:43:00;100977.78;;;11.81;58.52
62055;BME280;48653;51.742;-1.256;2023-03-20T10:45:30;100976.59;;;11.48;58.84
62055;BME280;48653;51.742;-1.256;2023-03-20T10:47:50;100967.06;;;11.47;58.90
62055;BME280;48653;51.742;-1.256;2023-03-20T10:50:16;100968.16;;;12.18;57.57
62055;BME280;48653;51.742;-1.256;2023-03-20T10:52:38;100960.47;;;12.10;57.48
62055;BME280;48653;51.742;-1.256;2023-03-20T10:55:05;100959.96;;;11.99;58.45
62055;BME280;48653;51.742;-1.256;2023-03-20T10:57:30;100953.90;;;12.67;57.73
62055;BME280;48653;51.742;-1.256;2023-03-20T10:59:55;100953.24;;;11.78;59.36
62055;BME280;48653;51.742;-1.256;2023-03-20T11:02:19;100950.08;;;12.06;58.16
62055;BME280;48653;51.742;-1.256;2023-03-20T11:04:43;100954.54;;;12.69;57.25
62055;BME280;48653;51.742;-1.256;2023-03-20T11:07:15;100953.84;;;12.56;57.29
62055;BME280;48653;51.742;-1.256;2023-03-20T11:09:33;100950.10;;;13.03;56.10
62055;BME280;48653;51.742;-1.256;2023-03-20T11:12:00;100951.72;;;12.45;58.00
62055;BME280;48653;51.742;-1.256;2023-03-20T11:14:25;100945.30;;;12.93;56.77
62055;BME280;48653;51.742;-1.256;2023-03-20T11:16:49;100943.21;;;13.32;55.74
62055;BME280;48653;51.742;-1.256;2023-03-20T11:19:13;100940.24;;;13.02;56.36
62055;BME280;48653;51.742;-1.256;2023-03-20T11:21:44;100944.15;;;13.61;55.24
62055;BME280;48653;51.742;-1.256;2023-03-20T11:24:03;100944.94;;;13.51;54.64
62055;BME280;48653;51.742;-1.256;2023-03-20T11:26:34;100942.75;;;13.23;55.54
62055;BME280;48653;51.742;-1.256;2023-03-20T11:28:55;100940.63;;;13.52;54.23
62055;BME280;48653;51.742;-1.256;2023-03-20T11:31:32;100939.76;;;12.86;55.36
62055;BME280;48653;51.742;-1.256;2023-03-20T11:33:46;100940.86;;;12.78;55.53
62055;BME280;48653;51.742;-1.256;2023-03-20T11:36:11;100938.62;;;12.99;55.42
62055;BME280;48653;51.742;-1.256;2023-03-20T11:38:42;100933.54;;;13.88;54.16
62055;BME280;48653;51.742;-1.256;2023-03-20T11:41:04;100933.42;;;13.36;55.53
62055;BME280;48653;51.742;-1.256;2023-03-20T11:43:26;100935.44;;;13.14;55.89
62055;BME280;48653;51.742;-1.256;2023-03-20T11:45:54;100937.65;;;12.33;57.39
62055;BME280;48653;51.742;-1.256;2023-03-20T11:48:18;100935.27;;;12.88;56.27
62055;BME280;48653;51.742;-1.256;2023-03-20T11:50:42;100940.87;;;12.55;57.51
62055;BME280;48653;51.742;-1.256;2023-03-20T11:55:32;100931.07;;;13.63;54.22
62055;BME280;48653;51.742;-1.256;2023-03-20T11:57:56;100930.99;;;14.26;53.36
62055;BME280;48653;51.742;-1.256;2023-03-20T12:00:22;100923.94;;;14.08;52.95
62055;BME280;48653;51.742;-1.256;2023-03-20T12:02:45;100928.02;;;13.70;54.64
62055;BME280;48653;51.742;-1.256;2023-03-20T12:05:28;100928.56;;;13.64;54.00
62055;BME280;48653;51.742;-1.256;2023-03-20T12:07:36;100929.82;;;13.41;54.28
62055;BME280;48653;51.742;-1.256;2023-03-20T12:10:04;100933.28;;;13.07;55.45
62055;BME280;48653;51.742;-1.256;2023-03-20T12:12:33;100925.08;;;13.73;53.80
62055;BME280;48653;51.742;-1.256;2023-03-20T12:14:53;100922.43;;;13.85;53.00
62055;BME280;48653;51.742;-1.256;2023-03-20T12:17:32;100917.87;;;13.27;53.90
62055;BME280;48653;51.742;-1.256;2023-03-20T12:19:42;100923.16;;;13.92;53.34
62055;BME280;48653;51.742;-1.256;2023-03-20T12:22:13;100918.83;;;13.45;54.59
62055;BME280;48653;51.742;-1.256;2023-03-20T12:24:36;100923.57;;;13.22;55.08
62055;BME280;48653;51.742;-1.256;2023-03-20T12:27:04;100919.79;;;12.79;55.88
62055;BME280;48653;51.742;-1.256;2023-03-20T12:29:26;100922.20;;;13.00;55.84
62055;BME280;48653;51.742;-1.256;2023-03-20T12:31:48;100918.96;;;12.97;55.73
62055;BME280;48653;51.742;-1.256;2023-03-20T12:34:14;100921.21;;;12.61;56.19
62055;BME280;48653;51.742;-1.256;2023-03-20T12:36:37;100916.71;;;13.08;55.84
62055;BME280;48653;51.742;-1.256;2023-03-20T12:39:02;100910.62;;;12.30;56.77
62055;BME280;48653;51.742;-1.256;2023-03-20T12:41:29;100910.65;;;13.27;55.42
62055;BME280;48653;51.742;-1.256;2023-03-20T12:44:06;100911.15;;;12.94;54.98
62055;BME280;48653;51.742;-1.256;2023-03-20T12:46:24;100905.92;;;13.34;54.13